sensor_id;sensor_type;location;lat;lon;timestamp;temperature;humidity
18191;DHT22;47004;51.366;12.348;2022-12-18T00:00:48;-5.40;99.90
18191;DHT22;47004;51.366;12.348;2022-12-18T00:03:09;-5.40;99.90
18191;DHT22;47004;51.366;12.348;2022-12-18T00:05:15;-5.40;99.90
18191;DHT22;47004;51.366;12.348;2022-12-18T00:07:19;-5.30;99.90
18191;DHT22;47004;51.366;12.348;2022-12-18T00:09:38;-5.40;99.90
18191;DHT22;47004;51.366;12.348;2022-12-18T00:11:41;-5.40;99.90
18191;DHT22;47004;51.366;12.348;2022-12-18T00:13:43;-5.40;99.90
18191;DHT22;47004;51.366;12.348;2022-12-18T00:15:45;-5.40;99.90
18191;DHT22;47004;51.366;12.348;2022-12-18T00:17:47;-5.40;99.90
18191;DHT22;47004;51.366;12.348;2022-12-18T00:19:49;-5.40;99.90
18191;DHT22;47004;51.366;12.348;2022-12-18T00:21:53;-5.40;99.90
18191;DHT22;47004;51.366;12.348;2022-12-18T00:23:55;-5.40;99.90
18191;DHT22;47004;51.366;12.348;2022-12-18T00:25:59;-5.40;99.90
18191;DHT22;47004;51.366;12.348;2022-12-18T00:28:01;-5.40;99.90
18191;DHT22;47004;51.366;12.348;2022-12-18T00:30:04;-5.40;99.90
18191;DHT22;47004;51.366;12.348;2022-12-18T00:32:06;-5.40;99.90
18191;DHT22;47004;51.366;12.348;2022-12-18T00:34:10;-5.40;99.90
18191;DHT22;47004;51.366;12.348;2022-12-18T00:36:14;-5.40;99.90
18191;DHT22;47004;51.366;12.348;2022-12-18T00:38:17;-5.40;99.90
18191;DHT22;47004;51.366;12.348;2022-12-18T00:40:19;-5.40;99.90
18191;DHT22;47004;51.366;12.348;2022-12-18T00:42:21;-5.40;99.90
18191;DHT22;47004;51.366;12.348;2022-12-18T00:44:41;-5.40;99.90
18191;DHT22;47004;51.366;12.348;2022-12-18T00:46:44;-5.40;99.90
18191;DHT22;47004;51.366;12.348;2022-12-18T00:48:46;-4.30;99.90
18191;DHT22;47004;51.366;12.348;2022-12-18T00:50:48;-5.40;99.90
18191;DHT22;47004;51.366;12.348;2022-12-18T00:52:50;-5.40;99.90
18191;DHT22;47004;51.366;12.348;2022-12-18T00:54:54;-5.40;99.90
18191;DHT22;47004;51.366;12.348;2022-12-18T00:56:56;-5.40;99.90
18191;DHT22;47004;51.366;12.348;2022-12-18T00:58:57;-5.30;99.90
18191;DHT22;47004;51.366;12.348;2022-12-18T01:00:59;-5.40;99.90
18191;DHT22;47004;51.366;12.348;2022-12-18T01:03:01;-5.40;99.90
18191;DHT22;47004;51.366;12.348;2022-12-18T01:05:04;-5.40;99.90
18191;DHT22;47004;51.366;12.348;2022-12-18T01:07:06;-5.40;99.90
18191;DHT22;47004;51.366;12.348;2022-12-18T01:09:11;-5.40;99.90
18191;DHT22;47004;51.366;12.348;2022-12-18T01:11:17;-5.50;99.90
18191;DHT22;47004;51.366;12.348;2022-12-18T01:13:19;-5.50;99.90
18191;DHT22;47004;51.366;12.348;2022-12-18T01:15:21;-5.60;99.90
18191;DHT22;47004;51.366;12.348;2022-12-18T01:17:23;-4.40;99.90
18191;DHT22;47004;51.366;12.348;2022-12-18T01:19:25;-5.50;99.90
18191;DHT22;47004;51.366;12.348;2022-12-18T01:21:27;-5.80;99.90
18191;DHT22;47004;51.366;12.348;2022-12-18T01:23:29;-5.80;99.90
18191;DHT22;47004;51.366;12.348;2022-12-18T01:25:31;-5.90;99.90
18191;DHT22;47004;51.366;12.348;2022-12-18T01:27:34;-5.90;99.90
18191;DHT22;47004;51.366;12.348;2022-12-18T01:29:36;-6.00;99.90
18191;DHT22;47004;51.366;12.348;2022-12-18T01:31:38;-6.10;99.90
18191;DHT22;47004;51.366;12.348;2022-12-18T01:33:40;-6.10;99.90
18191;DHT22;47004;51.366;12.348;2022-12-18T01:35:42;-5.70;99.90
18191;DHT22;47004;51.366;12.348;2022-12-18T01:37:44;-6.20;99.90
18191;DHT22;47004;51.366;12.348;2022-12-18T01:39:46;-6.30;99.90
18191;DHT22;47004;51.366;12.348;2022-12-18T01:41:48;-6.30;99.90
18191;DHT22;47004;51.366;12.348;2022-12-18T01:46:42;-6.40;99.90
18191;DHT22;47004;51.366;12.348;2022-12-18T01:48:45;-6.40;99.90
18191;DHT22;47004;51.366;12.348;2022-12-18T01:50:48;-6.50;99.90
18191;DHT22;47004;51.366;12.348;2022-12-18T01:52:53;-6.40;99.90
18191;DHT22;47004;51.366;12.348;2022-12-18T01:54:56;-6.60;99.90
18191;DHT22;47004;51.366;12.348;2022-12-18T01:56:59;-6.60;99.90
18191;DHT22;47004;51.366;12.348;2022-12-18T01:59:03;-6.70;99.90
18191;DHT22;47004;51.366;12.348;2022-12-18T02:01:06;-6.70;99.90
18191;DHT22;47004;51.366;12.348;2022-12-18T02:03:09;-6.80;99.90
18191;DHT22;47004;51.366;12.348;2022-12-18T02:05:13;-6.80;99.90
18191;DHT22;47004;51.366;12.348;2022-12-18T02:07:21;-6.90;99.90
18191;DHT22;47004;51.366;12.348;2022-12-18T02:09:29;-6.90;99.90
18191;DHT22;47004;51.366;12.348;2022-12-18T02:11:40;-7.00;99.90
18191;DHT22;47004;51.366;12.348;2022-12-18T02:13:46;-6.20;99.90
18191;DHT22;47004;51.366;12.348;2022-12-18T02:15:54;-7.00;99.90
18191;DHT22;47004;51.366;12.348;2022-12-18T02:18:01;-7.10;99.90
18191;DHT22;47004;51.366;12.348;2022-12-18T02:20:12;-6.50;99.90
18191;DHT22;47004;51.366;12.348;2022-12-18T02:22:27;-7.20;99.90
18191;DHT22;47004;51.366;12.348;2022-12-18T02:24:37;-7.20;99.90
18191;DHT22;47004;51.366;12.348;2022-12-18T02:26:46;-7.20;99.90
18191;DHT22;47004;51.366;12.348;2022-12-18T02:28:52;-6.80;99.90
18191;DHT22;47004;51.366;12.348;2022-12-18T02:30:59;-7.20;99.90
18191;DHT22;47004;51.366;12.348;2022-12-18T02:33:04;-7.20;99.90
18191;DHT22;47004;51.366;12.348;2022-12-18T02:35:10;-7.20;99.90
18191;DHT22;47004;51.366;12.348;2022-12-18T02:37:16;-7.20;99.90
18191;DHT22;47004;51.366;12.348;2022-12-18T02:39:21;-7.20;99.90
18191;DHT22;47004;51.366;12.348;2022-12-18T02:41:23;-7.20;99.90
18191;DHT22;47004;51.366;12.348;2022-12-18T02:43:29;-7.20;99.90
18191;DHT22;47004;51.366;12.348;2022-12-18T02:45:31;-7.20;99.90
18191;DHT22;47004;51.366;12.348;2022-12-18T02:47:37;-7.20;99.90
18191;DHT22;47004;51.366;12.348;2022-12-18T02:49:49;-7.20;99.90
18191;DHT22;47004;51.366;12.348;2022-12-18T02:51:56;-6.90;99.90
18191;DHT22;47004;51.366;12.348;2022-12-18T02:54:06;-7.30;99.90
18191;DHT22;47004;51.366;12.348;2022-12-18T02:56:15;-7.30;99.90
18191;DHT22;47004;51.366;12.348;2022-12-18T02:58:28;-7.30;99.90
18191;DHT22;47004;51.366;12.348;2022-12-18T03:00:35;-7.40;99.90
18191;DHT22;47004;51.366;12.348;2022-12-18T03:02:43;-7.40;99.90
18191;DHT22;47004;51.366;12.348;2022-12-18T03:04:49;-7.40;99.90
18191;DHT22;47004;51.366;12.348;2022-12-18T03:06:55;-7.50;99.90
18191;DHT22;47004;51.366;12.348;2022-12-18T03:09:02;-7.50;99.90
18191;DHT22;47004;51.366;12.348;2022-12-18T03:11:08;-7.50;99.90
18191;DHT22;47004;51.366;12.348;2022-12-18T03:13:14;-7.60;99.90
18191;DHT22;47004;51.366;12.348;2022-12-18T03:15:21;-7.60;99.90
18191;DHT22;47004;51.366;12.348;2022-12-18T03:17:27;-7.60;99.90
18191;DHT22;47004;51.366;12.348;2022-12-18T03:19:32;-7.60;99.90
18191;DHT22;47004;51.366;12.348;2022-12-18T03:21:39;-7.60;99.90
18191;DHT22;47004;51.366;12.348;2022-12-18T03:23:45;-7.70;99.90
18191;DHT22;47004;51.366;12.348;2022-12-18T03:25:52;-7.70;99.90
18191;DHT22;47004;51.366;12.348;2022-12-18T03:27:56;-7.70;99.90
18191;DHT22;47004;51.366;12.348;2022-12-18T03:30:03;-7.70;99.90
18191;DHT22;47004;51.366;12.348;2022-12-18T03:32:11;-7.70;99.90
18191;DHT22;47004;51.366;12.348;2022-12-18T03:34:16;-7.70;99.90
18191;DHT22;47004;51.366;12.348;2022-12-18T03:36:19;-7.70;99.90
18191;DHT22;47004;51.366;12.348;2022-12-18T03:38:21;-6.90;99.90
18191;DHT22;47004;51.366;12.348;2022-12-18T03:40:29;-7.80;99.90
18191;DHT22;47004;51.366;12.348;2022-12-18T03:42:39;-7.80;99.90
18191;DHT22;47004;51.366;12.348;2022-12-18T03:44:54;-7.80;99.90
18191;DHT22;47004;51.366;12.348;2022-12-18T03:47:01;-7.80;99.90
18191;DHT22;47004;51.366;12.348;2022-12-18T03:49:10;-7.90;99.90
18191;DHT22;47004;51.366;12.348;2022-12-18T03:51:17;-7.90;99.90
18191;DHT22;47004;51.366;12.348;2022-12-18T03:53:25;-7.90;99.90
18191;DHT22;47004;51.366;12.348;2022-12-18T03:55:31;-8.00;99.90
18191;DHT22;47004;51.366;12.348;2022-12-18T03:57:35;-8.00;99.90
18191;DHT22;47004;51.366;12.348;2022-12-18T03:59:38;-8.10;99.90
18191;DHT22;47004;51.366;12.348;2022-12-18T04:01:45;-8.10;99.90
18191;DHT22;47004;51.366;12.348;2022-12-18T04:03:49;-8.10;99.90
18191;DHT22;47004;51.366;12.348;2022-12-18T04:05:54;-8.10;99.90
18191;DHT22;47004;51.366;12.348;2022-12-18T04:07:57;-8.10;99.90
18191;DHT22;47004;51.366;12.348;2022-12-18T04:10:00;-8.10;99.90
18191;DHT22;47004;51.366;12.348;2022-12-18T04:12:03;-8.20;99.90
18191;DHT22;47004;51.366;12.348;2022-12-18T04:14:05;-8.20;99.90
18191;DHT22;47004;51.366;12.348;2022-12-18T04:16:07;-8.20;99.90
18191;DHT22;47004;51.366;12.348;2022-12-18T04:18:09;-8.20;99.90
18191;DHT22;47004;51.366;12.348;2022-12-18T04:20:11;-8.20;99.90
18191;DHT22;47004;51.366;12.348;2022-12-18T04:22:15;-8.30;99.90
18191;DHT22;47004;51.366;12.348;2022-12-18T04:24:17;-8.30;99.90
18191;DHT22;47004;51.366;12.348;2022-12-18T04:26:18;-8.30;99.90
18191;DHT22;47004;51.366;12.348;2022-12-18T04:28:21;-8.30;99.90
18191;DHT22;47004;51.366;12.348;2022-12-18T04:30:23;-8.30;99.90
18191;DHT22;47004;51.366;12.348;2022-12-18T04:32:25;-8.30;99.90
18191;DHT22;47004;51.366;12.348;2022-12-18T04:34:26;-8.40;99.90
18191;DHT22;47004;51.366;12.348;2022-12-18T04:36:29;-8.40;99.90
18191;DHT22;47004;51.366;12.348;2022-12-18T04:38:32;-8.40;99.90
18191;DHT22;47004;51.366;12.348;2022-12-18T04:40:34;-8.40;99.90
18191;DHT22;47004;51.366;12.348;2022-12-18T04:42:36;-8.40;99.90
18191;DHT22;47004;51.366;12.348;2022-12-18T04:44:38;-8.40;99.90
18191;DHT22;47004;51.366;12.348;2022-12-18T04:46:40;-8.40;99.90
18191;DHT22;47004;51.366;12.348;2022-12-18T04:48:44;-8.40;99.90
18191;DHT22;47004;51.366;12.348;2022-12-18T04:50:47;-8.40;99.90
18191;DHT22;47004;51.366;12.348;2022-12-18T04:52:49;-8.50;99.90
18191;DHT22;47004;51.366;12.348;2022-12-18T04:54:52;-8.50;99.90
18191;DHT22;47004;51.366;12.348;2022-12-18T04:56:54;-8.50;99.90
18191;DHT22;47004;51.366;12.348;2022-12-18T04:58:56;-8.50;99.90
18191;DHT22;47004;51.366;12.348;2022-12-18T05:00:57;-8.50;99.90
18191;DHT22;47004;51.366;12.348;2022-12-18T05:03:01;-8.50;99.90
18191;DHT22;47004;51.366;12.348;2022-12-18T05:05:03;-8.30;99.90
18191;DHT22;47004;51.366;12.348;2022-12-18T05:07:05;-8.50;99.90
18191;DHT22;47004;51.366;12.348;2022-12-18T05:09:07;-8.50;99.90
18191;DHT22;47004;51.366;12.348;2022-12-18T05:11:13;-8.50;99.90
18191;DHT22;47004;51.366;12.348;2022-12-18T05:13:16;-8.50;99.90
18191;DHT22;47004;51.366;12.348;2022-12-18T05:15:18;-8.50;99.90
18191;DHT22;47004;51.366;12.348;2022-12-18T05:17:19;-8.50;99.90
18191;DHT22;47004;51.366;12.348;2022-12-18T05:19:21;-8.50;99.90
18191;DHT22;47004;51.366;12.348;2022-12-18T05:21:23;-8.50;99.90
18191;DHT22;47004;51.366;12.348;2022-12-18T05:23:26;-8.50;99.90
18191;DHT22;47004;51.366;12.348;2022-12-18T05:25:28;-8.50;99.90
18191;DHT22;47004;51.366;12.348;2022-12-18T05:27:31;-7.90;99.90
18191;DHT22;47004;51.366;12.348;2022-12-18T05:29:33;-8.50;99.90
18191;DHT22;47004;51.366;12.348;2022-12-18T05:31:35;-8.50;99.90
18191;DHT22;47004;51.366;12.348;2022-12-18T05:33:37;-8.60;99.90
18191;DHT22;47004;51.366;12.348;2022-12-18T05:35:39;-8.60;99.90
18191;DHT22;47004;51.366;12.348;2022-12-18T05:37:41;-8.60;99.90
18191;DHT22;47004;51.366;12.348;2022-12-18T05:39:43;-8.60;99.90
18191;DHT22;47004;51.366;12.348;2022-12-18T05:41:45;-8.60;99.90
18191;DHT22;47004;51.366;12.348;2022-12-18T05:43:48;-8.60;99.90
18191;DHT22;47004;51.366;12.348;2022-12-18T05:45:51;-8.60;99.90
18191;DHT22;47004;51.366;12.348;2022-12-18T05:47:53;-8.60;99.90
18191;DHT22;47004;51.366;12.348;2022-12-18T05:49:55;-8.60;99.90
18191;DHT22;47004;51.366;12.348;2022-12-18T05:51:57;-8.60;99.90
18191;DHT22;47004;51.366;12.348;2022-12-18T05:54:01;-8.60;99.90
18191;DHT22;47004;51.366;12.348;2022-12-18T05:56:04;-8.60;99.90
18191;DHT22;47004;51.366;12.348;2022-12-18T05:58:08;-8.60;99.90
18191;DHT22;47004;51.366;12.348;2022-12-18T06:00:13;-8.60;99.90
18191;DHT22;47004;51.366;12.348;2022-12-18T06:02:16;-8.70;99.90
18191;DHT22;47004;51.366;12.348;2022-12-18T06:04:18;-8.70;99.90
18191;DHT22;47004;51.366;12.348;2022-12-18T06:06:21;-8.70;99.90
18191;DHT22;47004;51.366;12.348;2022-12-18T06:08:24;-8.70;99.90
18191;DHT22;47004;51.366;12.348;2022-12-18T06:10:25;-8.70;99.90
18191;DHT22;47004;51.366;12.348;2022-12-18T06:12:27;-8.70;99.90
18191;DHT22;47004;51.366;12.348;2022-12-18T06:14:29;-8.70;99.90
18191;DHT22;47004;51.366;12.348;2022-12-18T06:16:33;-8.70;99.90
18191;DHT22;47004;51.366;12.348;2022-12-18T06:18:34;-8.70;99.90
18191;DHT22;47004;51.366;12.348;2022-12-18T06:20:37;-8.70;99.90
18191;DHT22;47004;51.366;12.348;2022-12-18T06:22:40;-8.70;99.90
18191;DHT22;47004;51.366;12.348;2022-12-18T06:24:42;-8.70;99.90
18191;DHT22;47004;51.366;12.348;2022-12-18T06:26:44;-8.70;99.90
18191;DHT22;47004;51.366;12.348;2022-12-18T06:28:46;-8.70;99.90
18191;DHT22;47004;51.366;12.348;2022-12-18T06:30:48;-8.70;99.90
18191;DHT22;47004;51.366;12.348;2022-12-18T06:32:51;-8.70;99.90
18191;DHT22;47004;51.366;12.348;2022-12-18T06:34:53;-8.80;99.90
18191;DHT22;47004;51.366;12.348;2022-12-18T06:36:55;-8.70;99.90
18191;DHT22;47004;51.366;12.348;2022-12-18T06:38:58;-8.70;99.90
18191;DHT22;47004;51.366;12.348;2022-12-18T06:41:00;-8.80;99.90
18191;DHT22;47004;51.366;12.348;2022-12-18T06:43:02;-8.70;99.90
18191;DHT22;47004;51.366;12.348;2022-12-18T06:45:04;-8.80;99.90
18191;DHT22;47004;51.366;12.348;2022-12-18T06:47:06;-8.80;99.90
18191;DHT22;47004;51.366;12.348;2022-12-18T06:49:09;-8.80;99.90
18191;DHT22;47004;51.366;12.348;2022-12-18T06:51:11;-8.80;99.90
18191;DHT22;47004;51.366;12.348;2022-12-18T06:53:13;-8.80;99.90
18191;DHT22;47004;51.366;12.348;2022-12-18T06:55:16;-8.70;99.90
18191;DHT22;47004;51.366;12.348;2022-12-18T06:57:18;-8.70;99.90
18191;DHT22;47004;51.366;12.348;2022-12-18T06:59:20;-8.70;99.90
18191;DHT22;47004;51.366;12.348;2022-12-18T07:01:22;-8.70;99.90
18191;DHT22;47004;51.366;12.348;2022-12-18T07:03:24;-8.70;99.90
18191;DHT22;47004;51.366;12.348;2022-12-18T07:05:27;-8.70;99.90
18191;DHT22;47004;51.366;12.348;2022-12-18T07:07:31;-8.60;99.90
18191;DHT22;47004;51.366;12.348;2022-12-18T07:09:33;-8.70;99.90
18191;DHT22;47004;51.366;12.348;2022-12-18T07:11:35;-8.70;99.90
18191;DHT22;47004;51.366;12.348;2022-12-18T07:13:37;-8.70;99.90
18191;DHT22;47004;51.366;12.348;2022-12-18T07:15:39;-8.70;99.90
18191;DHT22;47004;51.366;12.348;2022-12-18T07:17:41;-8.70;99.90
18191;DHT22;47004;51.366;12.348;2022-12-18T07:19:43;-8.70;99.90
18191;DHT22;47004;51.366;12.348;2022-12-18T07:21:46;-8.70;99.90
18191;DHT22;47004;51.366;12.348;2022-12-18T07:23:48;-8.70;99.90
18191;DHT22;47004;51.366;12.348;2022-12-18T07:25:50;-8.70;99.90
18191;DHT22;47004;51.366;12.348;2022-12-18T07:27:52;-8.70;99.90
18191;DHT22;47004;51.366;12.348;2022-12-18T07:29:53;-8.70;99.90
18191;DHT22;47004;51.366;12.348;2022-12-18T07:31:55;-8.70;99.90
18191;DHT22;47004;51.366;12.348;2022-12-18T07:33:58;-8.70;99.90
18191;DHT22;47004;51.366;12.348;2022-12-18T07:36:01;-8.70;99.90
18191;DHT22;47004;51.366;12.348;2022-12-18T07:38:05;-8.70;99.90
18191;DHT22;47004;51.366;12.348;2022-12-18T07:40:08;-8.70;99.90
18191;DHT22;47004;51.366;12.348;2022-12-18T07:42:11;-8.70;99.90
18191;DHT22;47004;51.366;12.348;2022-12-18T07:44:30;-8.70;99.90
18191;DHT22;47004;51.366;12.348;2022-12-18T07:46:32;-8.70;99.90
18191;DHT22;47004;51.366;12.348;2022-12-18T07:48:34;-8.70;99.90
18191;DHT22;47004;51.366;12.348;2022-12-18T07:50:37;-8.70;99.90
18191;DHT22;47004;51.366;12.348;2022-12-18T07:52:39;-8.70;99.90
18191;DHT22;47004;51.366;12.348;2022-12-18T07:54:42;-8.70;99.90
18191;DHT22;47004;51.366;12.348;2022-12-18T07:56:44;-8.70;99.90
18191;DHT22;47004;51.366;12.348;2022-12-18T07:58:46;-9.10;99.90
18191;DHT22;47004;51.366;12.348;2022-12-18T08:00:50;-8.70;99.90
18191;DHT22;47004;51.366;12.348;2022-12-18T08:02:55;-8.60;99.90
18191;DHT22;47004;51.366;12.348;2022-12-18T08:04:57;-8.60;99.90
18191;DHT22;47004;51.366;12.348;2022-12-18T08:06:59;-8.60;99.90
18191;DHT22;47004;51.366;12.348;2022-12-18T08:09:01;-8.60;99.90
18191;DHT22;47004;51.366;12.348;2022-12-18T08:11:05;-8.60;99.90
18191;DHT22;47004;51.366;12.348;2022-12-18T08:13:07;-8.60;99.90
18191;DHT22;47004;51.366;12.348;2022-12-18T08:15:09;-8.60;99.90
18191;DHT22;47004;51.366;12.348;2022-12-18T08:17:11;-8.60;99.90
18191;DHT22;47004;51.366;12.348;2022-12-18T08:19:13;-8.60;99.90
18191;DHT22;47004;51.366;12.348;2022-12-18T08:21:17;-8.60;99.90
18191;DHT22;47004;51.366;12.348;2022-12-18T08:23:24;-8.60;99.90
18191;DHT22;47004;51.366;12.348;2022-12-18T08:25:26;-8.50;99.90
18191;DHT22;47004;51.366;12.348;2022-12-18T08:27:29;-8.50;99.90
18191;DHT22;47004;51.366;12.348;2022-12-18T08:29:31;-8.50;99.90
18191;DHT22;47004;51.366;12.348;2022-12-18T08:31:37;-8.50;99.90
18191;DHT22;47004;51.366;12.348;2022-12-18T08:33:41;-8.40;99.90
18191;DHT22;47004;51.366;12.348;2022-12-18T08:35:43;-8.40;99.90
18191;DHT22;47004;51.366;12.348;2022-12-18T08:37:44;-8.40;99.90
18191;DHT22;47004;51.366;12.348;2022-12-18T08:39:46;-8.40;99.90
18191;DHT22;47004;51.366;12.348;2022-12-18T08:41:49;-7.40;99.90
18191;DHT22;47004;51.366;12.348;2022-12-18T08:44:07;-8.40;99.90
18191;DHT22;47004;51.366;12.348;2022-12-18T08:46:32;-8.40;99.90
18191;DHT22;47004;51.366;12.348;2022-12-18T08:48:35;-8.30;99.90
18191;DHT22;47004;51.366;12.348;2022-12-18T08:50:37;-8.30;99.90
18191;DHT22;47004;51.366;12.348;2022-12-18T08:52:39;-7.80;99.90
18191;DHT22;47004;51.366;12.348;2022-12-18T08:54:41;-8.30;99.90
18191;DHT22;47004;51.366;12.348;2022-12-18T08:56:43;-8.30;99.90
18191;DHT22;47004;51.366;12.348;2022-12-18T08:58:47;-8.30;99.90
18191;DHT22;47004;51.366;12.348;2022-12-18T09:00:50;-8.20;99.90
18191;DHT22;47004;51.366;12.348;2022-12-18T09:02:52;-8.20;99.90
18191;DHT22;47004;51.366;12.348;2022-12-18T09:04:54;-8.20;99.90
18191;DHT22;47004;51.366;12.348;2022-12-18T09:06:56;-8.10;99.90
18191;DHT22;47004;51.366;12.348;2022-12-18T09:08:58;-8.10;99.90
18191;DHT22;47004;51.366;12.348;2022-12-18T09:11:00;-8.70;99.90
18191;DHT22;47004;51.366;12.348;2022-12-18T09:13:02;-8.10;99.90
18191;DHT22;47004;51.366;12.348;2022-12-18T09:15:05;-8.00;99.90
18191;DHT22;47004;51.366;12.348;2022-12-18T09:17:09;-8.00;99.90
18191;DHT22;47004;51.366;12.348;2022-12-18T09:19:11;-8.00;99.90
18191;DHT22;47004;51.366;12.348;2022-12-18T09:21:14;-8.00;99.90
18191;DHT22;47004;51.366;12.348;2022-12-18T09:23:17;-7.00;99.90
18191;DHT22;47004;51.366;12.348;2022-12-18T09:25:18;-7.90;99.90
18191;DHT22;47004;51.366;12.348;2022-12-18T09:27:20;-7.90;99.90
18191;DHT22;47004;51.366;12.348;2022-12-18T09:29:23;-7.80;99.90
18191;DHT22;47004;51.366;12.348;2022-12-18T09:31:26;-7.80;99.90
18191;DHT22;47004;51.366;12.348;2022-12-18T09:33:29;-7.80;99.90
18191;DHT22;47004;51.366;12.348;2022-12-18T09:35:31;-7.70;99.90
18191;DHT22;47004;51.366;12.348;2022-12-18T09:37:33;-7.70;99.90
18191;DHT22;47004;51.366;12.348;2022-12-18T09:39:35;-7.60;99.90
18191;DHT22;47004;51.366;12.348;2022-12-18T09:41:43;-7.60;99.90
18191;DHT22;47004;51.366;12.348;2022-12-18T09:43:48;-7.60;99.90
18191;DHT22;47004;51.366;12.348;2022-12-18T09:45:55;-7.60;99.90
18191;DHT22;47004;51.366;12.348;2022-12-18T09:47:59;-7.50;99.90
18191;DHT22;47004;51.366;12.348;2022-12-18T09:50:05;-7.50;99.90
18191;DHT22;47004;51.366;12.348;2022-12-18T09:52:19;-7.40;99.90
18191;DHT22;47004;51.366;12.348;2022-12-18T09:54:35;-7.30;99.90
18191;DHT22;47004;51.366;12.348;2022-12-18T09:56:40;-7.30;99.90
18191;DHT22;47004;51.366;12.348;2022-12-18T09:58:46;-7.30;99.90
18191;DHT22;47004;51.366;12.348;2022-12-18T10:00:51;-7.20;99.90
18191;DHT22;47004;51.366;12.348;2022-12-18T10:02:59;-7.20;99.90
18191;DHT22;47004;51.366;12.348;2022-12-18T10:05:06;-7.10;99.90
18191;DHT22;47004;51.366;12.348;2022-12-18T10:07:11;-7.10;99.90
18191;DHT22;47004;51.366;12.348;2022-12-18T10:09:24;-7.00;99.90
18191;DHT22;47004;51.366;12.348;2022-12-18T10:11:35;-7.00;99.90
18191;DHT22;47004;51.366;12.348;2022-12-18T10:13:43;-6.90;99.90
18191;DHT22;47004;51.366;12.348;2022-12-18T10:15:54;-6.60;99.90
18191;DHT22;47004;51.366;12.348;2022-12-18T10:18:13;-6.80;99.90
18191;DHT22;47004;51.366;12.348;2022-12-18T10:20:32;-6.80;99.90
18191;DHT22;47004;51.366;12.348;2022-12-18T10:22:44;-6.70;99.90
18191;DHT22;47004;51.366;12.348;2022-12-18T10:24:55;-6.60;99.90
18191;DHT22;47004;51.366;12.348;2022-12-18T10:27:09;-6.60;99.90
18191;DHT22;47004;51.366;12.348;2022-12-18T10:29:14;-6.50;99.90
18191;DHT22;47004;51.366;12.348;2022-12-18T10:31:19;-6.50;99.90
18191;DHT22;47004;51.366;12.348;2022-12-18T10:33:23;-6.40;99.90
18191;DHT22;47004;51.366;12.348;2022-12-18T10:35:29;-6.40;99.90
18191;DHT22;47004;51.366;12.348;2022-12-18T10:37:31;-6.30;99.90
18191;DHT22;47004;51.366;12.348;2022-12-18T10:39:33;-6.30;99.90
18191;DHT22;47004;51.366;12.348;2022-12-18T10:41:35;-6.20;99.90
18191;DHT22;47004;51.366;12.348;2022-12-18T10:43:38;-6.10;99.90
18191;DHT22;47004;51.366;12.348;2022-12-18T10:45:41;-6.10;99.90
18191;DHT22;47004;51.366;12.348;2022-12-18T10:47:46;-5.60;99.90
18191;DHT22;47004;51.366;12.348;2022-12-18T10:49:53;-6.00;99.90
18191;DHT22;47004;51.366;12.348;2022-12-18T10:52:15;-5.90;99.90
18191;DHT22;47004;51.366;12.348;2022-12-18T10:54:19;-5.80;99.90
18191;DHT22;47004;51.366;12.348;2022-12-18T10:56:24;-5.70;99.90
18191;DHT22;47004;51.366;12.348;2022-12-18T10:58:29;-5.60;99.90
18191;DHT22;47004;51.366;12.348;2022-12-18T11:00:32;-5.60;99.90
18191;DHT22;47004;51.366;12.348;2022-12-18T11:02:36;-5.50;99.90
18191;DHT22;47004;51.366;12.348;2022-12-18T11:04:50;-5.40;99.90
18191;DHT22;47004;51.366;12.348;2022-12-18T11:06:55;-5.30;99.90
18191;DHT22;47004;51.366;12.348;2022-12-18T11:09:00;-5.20;99.90
18191;DHT22;47004;51.366;12.348;2022-12-18T11:11:04;-5.10;99.90
18191;DHT22;47004;51.366;12.348;2022-12-18T11:13:15;-5.00;99.90
18191;DHT22;47004;51.366;12.348;2022-12-18T11:15:21;-4.90;99.90
18191;DHT22;47004;51.366;12.348;2022-12-18T11:17:28;-4.80;99.90
18191;DHT22;47004;51.366;12.348;2022-12-18T11:19:34;-4.70;99.90
18191;DHT22;47004;51.366;12.348;2022-12-18T11:21:39;-4.60;99.90
18191;DHT22;47004;51.366;12.348;2022-12-18T11:23:47;-4.50;99.90
18191;DHT22;47004;51.366;12.348;2022-12-18T11:25:58;-4.40;99.90
18191;DHT22;47004;51.366;12.348;2022-12-18T11:28:02;-4.30;99.90
18191;DHT22;47004;51.366;12.348;2022-12-18T11:30:10;-4.20;99.90
18191;DHT22;47004;51.366;12.348;2022-12-18T11:32:27;-4.20;99.90
18191;DHT22;47004;51.366;12.348;2022-12-18T11:34:32;-4.10;99.90
18191;DHT22;47004;51.366;12.348;2022-12-18T11:36:38;-4.00;99.90
18191;DHT22;47004;51.366;12.348;2022-12-18T11:38:42;-3.90;99.90
18191;DHT22;47004;51.366;12.348;2022-12-18T11:40:49;-3.80;99.90
18191;DHT22;47004;51.366;12.348;2022-12-18T11:43:00;-3.70;99.90
18191;DHT22;47004;51.366;12.348;2022-12-18T11:45:23;-3.60;99.90
18191;DHT22;47004;51.366;12.348;2022-12-18T11:47:31;-3.50;99.90
18191;DHT22;47004;51.366;12.348;2022-12-18T11:49:35;-3.30;99.90
18191;DHT22;47004;51.366;12.348;2022-12-18T11:51:44;-3.20;99.90
18191;DHT22;47004;51.366;12.348;2022-12-18T11:53:53;-3.00;99.90
18191;DHT22;47004;51.366;12.348;2022-12-18T11:56:06;-2.90;99.90
18191;DHT22;47004;51.366;12.348;2022-12-18T11:58:22;-2.70;99.90
18191;DHT22;47004;51.366;12.348;2022-12-18T12:00:28;-2.50;99.90
18191;DHT22;47004;51.366;12.348;2022-12-18T12:02:46;-2.30;99.90
18191;DHT22;47004;51.366;12.348;2022-12-18T12:05:11;-2.20;99.90
18191;DHT22;47004;51.366;12.348;2022-12-18T12:07:26;-2.00;99.90
18191;DHT22;47004;51.366;12.348;2022-12-18T12:09:33;-1.80;99.90
18191;DHT22;47004;51.366;12.348;2022-12-18T12:11:45;-1.80;99.90
18191;DHT22;47004;51.366;12.348;2022-12-18T12:13:55;-1.60;99.90
18191;DHT22;47004;51.366;12.348;2022-12-18T12:16:06;-1.60;99.90
18191;DHT22;47004;51.366;12.348;2022-12-18T12:18:22;-1.50;99.90
18191;DHT22;47004;51.366;12.348;2022-12-18T12:20:39;-1.50;99.90
18191;DHT22;47004;51.366;12.348;2022-12-18T12:22:50;-1.30;99.90
18191;DHT22;47004;51.366;12.348;2022-12-18T12:25:10;-1.20;99.90
18191;DHT22;47004;51.366;12.348;2022-12-18T12:27:19;-1.10;99.90
18191;DHT22;47004;51.366;12.348;2022-12-18T12:29:35;-1.00;99.90
18191;DHT22;47004;51.366;12.348;2022-12-18T12:32:00;-0.80;99.90
18191;DHT22;47004;51.366;12.348;2022-12-18T12:34:12;-0.70;99.90
18191;DHT22;47004;51.366;12.348;2022-12-18T12:36:25;-0.60;99.90
18191;DHT22;47004;51.366;12.348;2022-12-18T12:38:35;-0.50;99.90
18191;DHT22;47004;51.366;12.348;2022-12-18T12:40:41;-0.50;99.90
18191;DHT22;47004;51.366;12.348;2022-12-18T12:42:49;-0.40;99.90
18191;DHT22;47004;51.366;12.348;2022-12-18T12:45:18;-0.50;99.90
18191;DHT22;47004;51.366;12.348;2022-12-18T12:47:25;-0.60;99.90
18191;DHT22;47004;51.366;12.348;2022-12-18T12:49:31;-0.60;99.90
18191;DHT22;47004;51.366;12.348;2022-12-18T12:51:36;-0.70;99.90
18191;DHT22;47004;51.366;12.348;2022-12-18T12:53:39;-0.70;99.90
18191;DHT22;47004;51.366;12.348;2022-12-18T12:55:42;-0.70;99.90
18191;DHT22;47004;51.366;12.348;2022-12-18T12:57:51;-0.70;99.90
18191;DHT22;47004;51.366;12.348;2022-12-18T13:00:01;-0.80;99.90